sensor_id;sensor_type;location;lat;lon;timestamp;P1;durP1;ratioP1;P2;durP2;ratioP2
83284;SDS011;73191;50.074;8.488;2023-11-18T00:00:15;16.85;;;8.23;;
83284;SDS011;73191;50.074;8.488;2023-11-18T00:02:45;17.27;;;8.38;;
83284;SDS011;73191;50.074;8.488;2023-11-18T00:05:12;15.77;;;8.80;;
83284;SDS011;73191;50.074;8.488;2023-11-18T00:07:41;16.98;;;8.25;;
83284;SDS011;73191;50.074;8.488;2023-11-18T00:10:08;15.80;;;8.10;;
83284;SDS011;73191;50.074;8.488;2023-11-18T00:12:37;15.68;;;8.18;;
83284;SDS011;73191;50.074;8.488;2023-11-18T00:15:08;17.77;;;8.70;;
83284;SDS011;73191;50.074;8.488;2023-11-18T00:17:38;18.38;;;9.35;;
83284;SDS011;73191;50.074;8.488;2023-11-18T00:20:08;15.95;;;8.82;;
83284;SDS011;73191;50.074;8.488;2023-11-18T00:22:39;17.17;;;8.52;;
83284;SDS011;73191;50.074;8.488;2023-11-18T00:25:08;16.88;;;8.80;;
83284;SDS011;73191;50.074;8.488;2023-11-18T00:27:37;20.10;;;9.57;;
83284;SDS011;73191;50.074;8.488;2023-11-18T00:30:05;21.45;;;9.68;;
83284;SDS011;73191;50.074;8.488;2023-11-18T00:32:34;18.02;;;8.98;;
83284;SDS011;73191;50.074;8.488;2023-11-18T00:35:02;18.88;;;8.55;;
83284;SDS011;73191;50.074;8.488;2023-11-18T00:37:32;18.83;;;9.18;;
83284;SDS011;73191;50.074;8.488;2023-11-18T00:40:00;19.20;;;10.52;;
83284;SDS011;73191;50.074;8.488;2023-11-18T00:42:29;21.20;;;9.90;;
83284;SDS011;73191;50.074;8.488;2023-11-18T00:44:56;17.02;;;8.93;;
83284;SDS011;73191;50.074;8.488;2023-11-18T00:47:24;17.48;;;9.20;;
83284;SDS011;73191;50.074;8.488;2023-11-18T00:49:52;18.95;;;9.40;;
83284;SDS011;73191;50.074;8.488;2023-11-18T00:52:20;19.98;;;9.57;;
83284;SDS011;73191;50.074;8.488;2023-11-18T00:54:49;20.63;;;10.25;;
83284;SDS011;73191;50.074;8.488;2023-11-18T00:57:18;14.88;;;8.25;;
83284;SDS011;73191;50.074;8.488;2023-11-18T00:59:45;19.55;;;9.60;;
83284;SDS011;73191;50.074;8.488;2023-11-18T01:02:13;19.80;;;9.57;;
83284;SDS011;73191;50.074;8.488;2023-11-18T01:04:41;17.45;;;9.25;;
83284;SDS011;73191;50.074;8.488;2023-11-18T01:07:11;17.67;;;9.40;;
83284;SDS011;73191;50.074;8.488;2023-11-18T01:09:39;14.55;;;7.47;;
83284;SDS011;73191;50.074;8.488;2023-11-18T01:12:09;15.05;;;8.73;;
83284;SDS011;73191;50.074;8.488;2023-11-18T01:14:37;14.73;;;8.23;;
83284;SDS011;73191;50.074;8.488;2023-11-18T01:17:06;15.35;;;7.78;;
83284;SDS011;73191;50.074;8.488;2023-11-18T01:19:35;19.80;;;7.90;;
83284;SDS011;73191;50.074;8.488;2023-11-18T01:22:03;13.23;;;7.72;;
83284;SDS011;73191;50.074;8.488;2023-11-18T01:24:32;15.75;;;8.23;;
83284;SDS011;73191;50.074;8.488;2023-11-18T01:27:01;13.93;;;7.68;;
83284;SDS011;73191;50.074;8.488;2023-11-18T01:29:30;15.13;;;8.05;;
83284;SDS011;73191;50.074;8.488;2023-11-18T01:31:59;14.15;;;7.35;;
83284;SDS011;73191;50.074;8.488;2023-11-18T01:34:27;15.77;;;7.72;;
83284;SDS011;73191;50.074;8.488;2023-11-18T01:36:55;15.80;;;7.57;;
83284;SDS011;73191;50.074;8.488;2023-11-18T01:39:23;14.05;;;7.68;;
83284;SDS011;73191;50.074;8.488;2023-11-18T01:41:51;16.10;;;8.25;;
83284;SDS011;73191;50.074;8.488;2023-11-18T01:44:19;14.32;;;7.40;;
83284;SDS011;73191;50.074;8.488;2023-11-18T01:46:51;16.50;;;8.02;;
83284;SDS011;73191;50.074;8.488;2023-11-18T01:49:20;15.70;;;8.35;;
83284;SDS011;73191;50.074;8.488;2023-11-18T01:51:48;16.60;;;8.50;;
83284;SDS011;73191;50.074;8.488;2023-11-18T01:54:18;14.55;;;7.57;;
83284;SDS011;73191;50.074;8.488;2023-11-18T01:56:47;16.85;;;7.90;;
83284;SDS011;73191;50.074;8.488;2023-11-18T01:59:15;17.25;;;9.13;;
83284;SDS011;73191;50.074;8.488;2023-11-18T02:01:46;18.45;;;7.90;;
83284;SDS011;73191;50.074;8.488;2023-11-18T02:04:17;17.75;;;7.88;;
83284;SDS011;73191;50.074;8.488;2023-11-18T02:06:47;14.70;;;7.18;;
83284;SDS011;73191;50.074;8.488;2023-11-18T02:09:16;16.42;;;8.27;;
83284;SDS011;73191;50.074;8.488;2023-11-18T02:11:45;12.88;;;7.43;;
83284;SDS011;73191;50.074;8.488;2023-11-18T02:14:19;13.57;;;6.10;;
83284;SDS011;73191;50.074;8.488;2023-11-18T02:16:49;11.23;;;6.10;;
83284;SDS011;73191;50.074;8.488;2023-11-18T02:19:20;13.10;;;7.60;;
83284;SDS011;73191;50.074;8.488;2023-11-18T02:21:49;13.52;;;6.93;;
83284;SDS011;73191;50.074;8.488;2023-11-18T02:24:25;14.40;;;6.47;;
83284;SDS011;73191;50.074;8.488;2023-11-18T02:26:59;15.88;;;7.68;;
83284;SDS011;73191;50.074;8.488;2023-11-18T02:29:28;15.85;;;6.68;;
83284;SDS011;73191;50.074;8.488;2023-11-18T02:32:00;11.52;;;6.10;;
83284;SDS011;73191;50.074;8.488;2023-11-18T02:34:32;13.10;;;6.63;;
83284;SDS011;73191;50.074;8.488;2023-11-18T02:37:01;12.57;;;5.90;;
83284;SDS011;73191;50.074;8.488;2023-11-18T02:39:32;11.18;;;6.03;;
83284;SDS011;73191;50.074;8.488;2023-11-18T02:42:07;10.95;;;5.25;;
83284;SDS011;73191;50.074;8.488;2023-11-18T02:44:36;9.85;;;5.57;;
83284;SDS011;73191;50.074;8.488;2023-11-18T02:47:04;10.30;;;4.95;;
83284;SDS011;73191;50.074;8.488;2023-11-18T02:49:34;9.20;;;4.97;;
83284;SDS011;73191;50.074;8.488;2023-11-18T02:52:02;8.38;;;4.93;;
83284;SDS011;73191;50.074;8.488;2023-11-18T02:54:31;10.98;;;4.72;;
83284;SDS011;73191;50.074;8.488;2023-11-18T02:56:59;7.20;;;4.43;;
83284;SDS011;73191;50.074;8.488;2023-11-18T02:59:29;10.90;;;4.90;;
83284;SDS011;73191;50.074;8.488;2023-11-18T03:01:57;10.25;;;4.93;;
83284;SDS011;73191;50.074;8.488;2023-11-18T03:04:27;8.80;;;4.68;;
83284;SDS011;73191;50.074;8.488;2023-11-18T03:06:55;8.02;;;4.20;;
83284;SDS011;73191;50.074;8.488;2023-11-18T03:09:23;8.38;;;4.22;;
83284;SDS011;73191;50.074;8.488;2023-11-18T03:11:54;9.40;;;4.25;;
83284;SDS011;73191;50.074;8.488;2023-11-18T03:14:22;9.23;;;4.40;;
83284;SDS011;73191;50.074;8.488;2023-11-18T03:16:51;7.78;;;4.53;;
83284;SDS011;73191;50.074;8.488;2023-11-18T03:19:22;11.32;;;5.50;;
83284;SDS011;73191;50.074;8.488;2023-11-18T03:21:50;10.30;;;5.13;;
83284;SDS011;73191;50.074;8.488;2023-11-18T03:24:19;12.50;;;5.93;;
83284;SDS011;73191;50.074;8.488;2023-11-18T03:26:47;10.90;;;5.63;;
83284;SDS011;73191;50.074;8.488;2023-11-18T03:29:15;11.98;;;5.88;;
83284;SDS011;73191;50.074;8.488;2023-11-18T03:31:43;11.02;;;5.90;;
83284;SDS011;73191;50.074;8.488;2023-11-18T03:34:16;12.48;;;5.72;;
83284;SDS011;73191;50.074;8.488;2023-11-18T03:36:44;14.00;;;6.82;;
83284;SDS011;73191;50.074;8.488;2023-11-18T03:39:13;15.35;;;7.60;;
83284;SDS011;73191;50.074;8.488;2023-11-18T03:41:41;13.88;;;6.80;;
83284;SDS011;73191;50.074;8.488;2023-11-18T03:44:11;16.83;;;7.07;;
83284;SDS011;73191;50.074;8.488;2023-11-18T03:46:39;19.90;;;7.90;;
83284;SDS011;73191;50.074;8.488;2023-11-18T03:49:07;13.23;;;6.35;;
83284;SDS011;73191;50.074;8.488;2023-11-18T03:51:36;17.08;;;7.80;;
83284;SDS011;73191;50.074;8.488;2023-11-18T03:54:04;14.02;;;7.18;;
83284;SDS011;73191;50.074;8.488;2023-11-18T03:56:35;15.20;;;7.22;;
83284;SDS011;73191;50.074;8.488;2023-11-18T03:59:02;15.18;;;7.32;;
83284;SDS011;73191;50.074;8.488;2023-11-18T04:01:31;15.45;;;7.55;;
83284;SDS011;73191;50.074;8.488;2023-11-18T04:03:59;15.07;;;7.53;;
83284;SDS011;73191;50.074;8.488;2023-11-18T04:06:27;16.25;;;7.68;;
83284;SDS011;73191;50.074;8.488;2023-11-18T04:08:56;15.65;;;7.82;;
83284;SDS011;73191;50.074;8.488;2023-11-18T04:11:24;14.07;;;7.07;;
83284;SDS011;73191;50.074;8.488;2023-11-18T04:13:53;15.10;;;7.20;;
83284;SDS011;73191;50.074;8.488;2023-11-18T04:16:21;13.98;;;6.53;;
83284;SDS011;73191;50.074;8.488;2023-11-18T04:18:49;11.35;;;6.03;;
83284;SDS011;73191;50.074;8.488;2023-11-18T04:21:17;10.95;;;6.00;;
83284;SDS011;73191;50.074;8.488;2023-11-18T04:23:44;10.77;;;5.78;;
83284;SDS011;73191;50.074;8.488;2023-11-18T04:26:14;12.95;;;5.80;;
83284;SDS011;73191;50.074;8.488;2023-11-18T04:28:42;11.52;;;5.90;;
83284;SDS011;73191;50.074;8.488;2023-11-18T04:31:09;13.82;;;5.55;;
83284;SDS011;73191;50.074;8.488;2023-11-18T04:33:37;9.85;;;5.15;;
83284;SDS011;73191;50.074;8.488;2023-11-18T04:36:07;11.85;;;5.82;;
83284;SDS011;73191;50.074;8.488;2023-11-18T04:38:36;12.20;;;5.78;;
83284;SDS011;73191;50.074;8.488;2023-11-18T04:41:04;12.95;;;6.50;;
83284;SDS011;73191;50.074;8.488;2023-11-18T04:43:34;13.20;;;6.65;;
83284;SDS011;73191;50.074;8.488;2023-11-18T04:46:11;14.25;;;6.15;;
83284;SDS011;73191;50.074;8.488;2023-11-18T04:48:40;15.73;;;7.38;;
83284;SDS011;73191;50.074;8.488;2023-11-18T04:51:08;12.88;;;6.63;;
83284;SDS011;73191;50.074;8.488;2023-11-18T04:53:37;13.75;;;6.78;;
83284;SDS011;73191;50.074;8.488;2023-11-18T04:56:06;15.00;;;7.32;;
83284;SDS011;73191;50.074;8.488;2023-11-18T04:58:37;15.55;;;6.80;;
83284;SDS011;73191;50.074;8.488;2023-11-18T05:01:06;17.73;;;8.40;;
83284;SDS011;73191;50.074;8.488;2023-11-18T05:03:35;16.45;;;7.72;;
83284;SDS011;73191;50.074;8.488;2023-11-18T05:06:03;15.13;;;7.30;;
83284;SDS011;73191;50.074;8.488;2023-11-18T05:08:31;18.20;;;7.85;;
83284;SDS011;73191;50.074;8.488;2023-11-18T05:11:00;16.23;;;7.63;;
83284;SDS011;73191;50.074;8.488;2023-11-18T05:13:28;20.10;;;8.35;;
83284;SDS011;73191;50.074;8.488;2023-11-18T05:15:57;16.20;;;8.30;;
83284;SDS011;73191;50.074;8.488;2023-11-18T05:18:25;16.92;;;8.32;;
83284;SDS011;73191;50.074;8.488;2023-11-18T05:20:56;18.85;;;8.50;;
83284;SDS011;73191;50.074;8.488;2023-11-18T05:23:24;18.80;;;8.23;;
83284;SDS011;73191;50.074;8.488;2023-11-18T05:25:52;21.45;;;8.20;;
83284;SDS011;73191;50.074;8.488;2023-11-18T05:28:21;21.67;;;8.68;;
83284;SDS011;73191;50.074;8.488;2023-11-18T05:30:50;21.35;;;9.10;;
83284;SDS011;73191;50.074;8.488;2023-11-18T05:33:20;19.75;;;9.60;;
83284;SDS011;73191;50.074;8.488;2023-11-18T05:35:47;20.45;;;9.52;;
83284;SDS011;73191;50.074;8.488;2023-11-18T05:38:16;24.50;;;10.23;;
83284;SDS011;73191;50.074;8.488;2023-11-18T05:40:45;19.45;;;8.95;;
83284;SDS011;73191;50.074;8.488;2023-11-18T05:43:22;22.80;;;10.57;;
83284;SDS011;73191;50.074;8.488;2023-11-18T05:45:52;27.02;;;10.73;;
83284;SDS011;73191;50.074;8.488;2023-11-18T05:48:42;26.50;;;10.95;;
83284;SDS011;73191;50.074;8.488;2023-11-18T05:51:11;22.63;;;10.63;;
83284;SDS011;73191;50.074;8.488;2023-11-18T05:53:39;27.27;;;10.60;;
83284;SDS011;73191;50.074;8.488;2023-11-18T05:56:08;22.40;;;9.13;;
83284;SDS011;73191;50.074;8.488;2023-11-18T05:58:36;21.05;;;9.18;;
83284;SDS011;73191;50.074;8.488;2023-11-18T06:01:05;21.48;;;9.40;;
83284;SDS011;73191;50.074;8.488;2023-11-18T06:03:35;21.23;;;9.40;;
83284;SDS011;73191;50.074;8.488;2023-11-18T06:06:08;25.17;;;10.82;;
83284;SDS011;73191;50.074;8.488;2023-11-18T06:08:36;21.58;;;9.13;;
83284;SDS011;73191;50.074;8.488;2023-11-18T06:11:07;28.90;;;11.32;;
83284;SDS011;73191;50.074;8.488;2023-11-18T06:16:09;22.83;;;9.73;;
83284;SDS011;73191;50.074;8.488;2023-11-18T06:18:41;21.75;;;8.93;;
83284;SDS011;73191;50.074;8.488;2023-11-18T06:21:13;20.92;;;9.30;;
83284;SDS011;73191;50.074;8.488;2023-11-18T06:23:41;23.67;;;10.48;;
83284;SDS011;73191;50.074;8.488;2023-11-18T06:26:10;26.52;;;11.30;;
83284;SDS011;73191;50.074;8.488;2023-11-18T06:28:38;28.80;;;12.77;;
83284;SDS011;73191;50.074;8.488;2023-11-18T06:31:07;26.70;;;12.05;;
83284;SDS011;73191;50.074;8.488;2023-11-18T06:33:36;26.10;;;12.60;;
83284;SDS011;73191;50.074;8.488;2023-11-18T06:36:09;20.67;;;9.40;;
83284;SDS011;73191;50.074;8.488;2023-11-18T06:38:39;23.27;;;10.38;;
83284;SDS011;73191;50.074;8.488;2023-11-18T06:41:07;24.65;;;11.43;;
83284;SDS011;73191;50.074;8.488;2023-11-18T06:43:38;23.27;;;11.15;;
83284;SDS011;73191;50.074;8.488;2023-11-18T06:46:19;21.50;;;10.13;;
83284;SDS011;73191;50.074;8.488;2023-11-18T06:48:51;22.52;;;10.40;;
83284;SDS011;73191;50.074;8.488;2023-11-18T06:51:20;22.80;;;10.57;;
83284;SDS011;73191;50.074;8.488;2023-11-18T06:53:51;27.27;;;11.93;;
83284;SDS011;73191;50.074;8.488;2023-11-18T06:56:21;26.05;;;10.52;;
83284;SDS011;73191;50.074;8.488;2023-11-18T06:58:49;23.10;;;10.05;;
83284;SDS011;73191;50.074;8.488;2023-11-18T07:01:16;24.65;;;11.63;;
83284;SDS011;73191;50.074;8.488;2023-11-18T07:03:45;27.77;;;11.07;;
83284;SDS011;73191;50.074;8.488;2023-11-18T07:06:16;27.73;;;12.32;;
83284;SDS011;73191;50.074;8.488;2023-11-18T07:08:48;24.95;;;11.65;;
83284;SDS011;73191;50.074;8.488;2023-11-18T07:11:17;24.67;;;11.60;;
83284;SDS011;73191;50.074;8.488;2023-11-18T07:13:46;26.75;;;11.98;;
83284;SDS011;73191;50.074;8.488;2023-11-18T07:16:16;21.92;;;10.63;;
83284;SDS011;73191;50.074;8.488;2023-11-18T07:18:45;29.02;;;12.50;;
83284;SDS011;73191;50.074;8.488;2023-11-18T07:21:13;26.88;;;12.63;;
83284;SDS011;73191;50.074;8.488;2023-11-18T07:23:41;25.40;;;11.95;;
83284;SDS011;73191;50.074;8.488;2023-11-18T07:26:09;29.02;;;12.48;;
83284;SDS011;73191;50.074;8.488;2023-11-18T07:28:38;23.42;;;11.15;;
83284;SDS011;73191;50.074;8.488;2023-11-18T07:31:07;30.83;;;12.43;;
83284;SDS011;73191;50.074;8.488;2023-11-18T07:33:35;26.65;;;11.55;;
83284;SDS011;73191;50.074;8.488;2023-11-18T07:36:03;28.10;;;11.45;;
83284;SDS011;73191;50.074;8.488;2023-11-18T07:38:32;26.25;;;10.82;;
83284;SDS011;73191;50.074;8.488;2023-11-18T07:41:01;31.08;;;12.27;;
83284;SDS011;73191;50.074;8.488;2023-11-18T07:43:29;31.15;;;10.63;;
83284;SDS011;73191;50.074;8.488;2023-11-18T07:45:58;22.75;;;9.27;;
83284;SDS011;73191;50.074;8.488;2023-11-18T07:48:27;28.90;;;9.68;;
83284;SDS011;73191;50.074;8.488;2023-11-18T07:50:57;23.60;;;10.07;;
83284;SDS011;73191;50.074;8.488;2023-11-18T07:53:25;24.30;;;10.38;;
83284;SDS011;73191;50.074;8.488;2023-11-18T07:55:55;24.42;;;9.93;;
83284;SDS011;73191;50.074;8.488;2023-11-18T07:58:23;25.35;;;10.68;;
83284;SDS011;73191;50.074;8.488;2023-11-18T08:00:53;30.05;;;11.32;;
83284;SDS011;73191;50.074;8.488;2023-11-18T08:03:22;28.38;;;11.63;;
83284;SDS011;73191;50.074;8.488;2023-11-18T08:05:50;27.65;;;11.80;;
83284;SDS011;73191;50.074;8.488;2023-11-18T08:08:18;36.30;;;12.57;;
83284;SDS011;73191;50.074;8.488;2023-11-18T08:10:47;31.45;;;12.02;;
83284;SDS011;73191;50.074;8.488;2023-11-18T08:13:15;29.63;;;12.13;;
83284;SDS011;73191;50.074;8.488;2023-11-18T08:15:43;32.03;;;10.90;;
83284;SDS011;73191;50.074;8.488;2023-11-18T08:18:12;25.42;;;10.32;;
83284;SDS011;73191;50.074;8.488;2023-11-18T08:20:42;27.70;;;11.07;;
83284;SDS011;73191;50.074;8.488;2023-11-18T08:23:11;28.55;;;11.18;;
83284;SDS011;73191;50.074;8.488;2023-11-18T08:25:38;26.40;;;10.52;;
83284;SDS011;73191;50.074;8.488;2023-11-18T08:28:07;24.13;;;11.18;;
83284;SDS011;73191;50.074;8.488;2023-11-18T08:30:36;27.50;;;10.30;;
83284;SDS011;73191;50.074;8.488;2023-11-18T08:33:05;25.65;;;10.63;;
83284;SDS011;73191;50.074;8.488;2023-11-18T08:35:35;24.15;;;10.57;;
83284;SDS011;73191;50.074;8.488;2023-11-18T08:38:04;27.35;;;10.65;;
83284;SDS011;73191;50.074;8.488;2023-11-18T08:40:34;26.85;;;10.70;;
83284;SDS011;73191;50.074;8.488;2023-11-18T08:43:02;25.05;;;10.05;;
83284;SDS011;73191;50.074;8.488;2023-11-18T08:45:34;26.58;;;10.07;;
83284;SDS011;73191;50.074;8.488;2023-11-18T08:48:04;26.48;;;9.93;;
83284;SDS011;73191;50.074;8.488;2023-11-18T08:50:34;25.25;;;10.30;;
83284;SDS011;73191;50.074;8.488;2023-11-18T08:53:02;26.58;;;11.30;;
83284;SDS011;73191;50.074;8.488;2023-11-18T08:55:33;24.27;;;10.23;;
83284;SDS011;73191;50.074;8.488;2023-11-18T08:58:10;26.35;;;10.88;;
83284;SDS011;73191;50.074;8.488;2023-11-18T09:00:47;24.48;;;10.88;;
83284;SDS011;73191;50.074;8.488;2023-11-18T09:03:17;22.63;;;10.93;;
83284;SDS011;73191;50.074;8.488;2023-11-18T09:05:51;23.45;;;10.05;;
83284;SDS011;73191;50.074;8.488;2023-11-18T09:08:27;26.65;;;11.80;;
83284;SDS011;73191;50.074;8.488;2023-11-18T09:11:00;25.15;;;11.13;;
83284;SDS011;73191;50.074;8.488;2023-11-18T09:13:28;25.00;;;11.13;;
83284;SDS011;73191;50.074;8.488;2023-11-18T09:15:58;30.15;;;13.38;;
83284;SDS011;73191;50.074;8.488;2023-11-18T09:18:26;26.20;;;12.13;;
83284;SDS011;73191;50.074;8.488;2023-11-18T09:20:54;23.70;;;11.65;;
83284;SDS011;73191;50.074;8.488;2023-11-18T09:23:25;25.48;;;11.27;;
83284;SDS011;73191;50.074;8.488;2023-11-18T09:25:53;28.73;;;11.65;;
83284;SDS011;73191;50.074;8.488;2023-11-18T09:28:23;29.50;;;12.50;;
83284;SDS011;73191;50.074;8.488;2023-11-18T09:30:55;28.92;;;11.75;;
83284;SDS011;73191;50.074;8.488;2023-11-18T09:33:24;27.58;;;11.80;;
83284;SDS011;73191;50.074;8.488;2023-11-18T09:35:56;30.90;;;11.60;;
83284;SDS011;73191;50.074;8.488;2023-11-18T09:38:26;23.63;;;10.63;;
83284;SDS011;73191;50.074;8.488;2023-11-18T09:40:57;31.30;;;13.00;;
83284;SDS011;73191;50.074;8.488;2023-11-18T09:43:30;26.73;;;11.82;;
83284;SDS011;73191;50.074;8.488;2023-11-18T09:46:03;29.08;;;12.45;;
83284;SDS011;73191;50.074;8.488;2023-11-18T09:48:42;29.98;;;12.93;;
83284;SDS011;73191;50.074;8.488;2023-11-18T09:51:19;34.05;;;14.88;;
83284;SDS011;73191;50.074;8.488;2023-11-18T09:53:49;32.63;;;13.50;;
83284;SDS011;73191;50.074;8.488;2023-11-18T09:56:21;32.42;;;13.43;;
83284;SDS011;73191;50.074;8.488;2023-11-18T09:58:57;40.50;;;13.20;;
83284;SDS011;73191;50.074;8.488;2023-11-18T10:01:34;34.38;;;14.13;;
83284;SDS011;73191;50.074;8.488;2023-11-18T10:04:04;36.00;;;13.57;;
83284;SDS011;73191;50.074;8.488;2023-11-18T10:06:35;32.67;;;13.55;;
83284;SDS011;73191;50.074;8.488;2023-11-18T10:09:06;33.45;;;14.07;;
83284;SDS011;73191;50.074;8.488;2023-11-18T10:11:42;40.35;;;15.00;;
83284;SDS011;73191;50.074;8.488;2023-11-18T10:14:14;41.38;;;16.13;;
83284;SDS011;73191;50.074;8.488;2023-11-18T10:16:43;37.75;;;14.73;;
83284;SDS011;73191;50.074;8.488;2023-11-18T10:19:14;33.97;;;12.93;;
83284;SDS011;73191;50.074;8.488;2023-11-18T10:21:44;37.53;;;13.93;;
83284;SDS011;73191;50.074;8.488;2023-11-18T10:24:15;33.40;;;13.38;;
83284;SDS011;73191;50.074;8.488;2023-11-18T10:26:53;37.15;;;14.75;;
83284;SDS011;73191;50.074;8.488;2023-11-18T10:29:25;41.30;;;15.00;;
83284;SDS011;73191;50.074;8.488;2023-11-18T10:32:04;41.47;;;17.08;;
83284;SDS011;73191;50.074;8.488;2023-11-18T10:34:36;43.92;;;15.57;;
83284;SDS011;73191;50.074;8.488;2023-11-18T10:37:04;38.20;;;13.52;;
83284;SDS011;73191;50.074;8.488;2023-11-18T10:39:33;33.38;;;13.98;;
83284;SDS011;73191;50.074;8.488;2023-11-18T10:42:02;38.67;;;13.75;;
83284;SDS011;73191;50.074;8.488;2023-11-18T10:44:32;37.60;;;14.93;;
83284;SDS011;73191;50.074;8.488;2023-11-18T10:47:00;41.97;;;14.27;;
83284;SDS011;73191;50.074;8.488;2023-11-18T10:49:28;45.60;;;15.13;;
83284;SDS011;73191;50.074;8.488;2023-11-18T10:52:03;38.50;;;15.15;;
83284;SDS011;73191;50.074;8.488;2023-11-18T10:54:35;43.90;;;15.63;;
83284;SDS011;73191;50.074;8.488;2023-11-18T10:57:04;44.72;;;16.10;;
83284;SDS011;73191;50.074;8.488;2023-11-18T10:59:36;41.88;;;15.80;;
83284;SDS011;73191;50.074;8.488;2023-11-18T11:02:17;40.55;;;15.90;;
83284;SDS011;73191;50.074;8.488;2023-11-18T11:04:48;45.00;;;15.32;;
83284;SDS011;73191;50.074;8.488;2023-11-18T11:07:16;51.65;;;17.08;;
83284;SDS011;73191;50.074;8.488;2023-11-18T11:09:45;46.05;;;16.20;;
83284;SDS011;73191;50.074;8.488;2023-11-18T11:12:13;49.75;;;17.67;;
83284;SDS011;73191;50.074;8.488;2023-11-18T11:14:46;43.78;;;16.52;;
83284;SDS011;73191;50.074;8.488;2023-11-18T11:17:17;51.95;;;16.83;;
83284;SDS011;73191;50.074;8.488;2023-11-18T11:19:54;47.28;;;15.82;;
83284;SDS011;73191;50.074;8.488;2023-11-18T11:22:28;40.05;;;15.57;;
83284;SDS011;73191;50.074;8.488;2023-11-18T11:25:03;49.17;;;16.27;;
83284;SDS011;73191;50.074;8.488;2023-11-18T11:27:40;44.55;;;15.40;;
83284;SDS011;73191;50.074;8.488;2023-11-18T11:30:20;44.35;;;16.20;;
83284;SDS011;73191;50.074;8.488;2023-11-18T11:32:51;46.75;;;15.63;;
83284;SDS011;73191;50.074;8.488;2023-11-18T11:35:22;45.30;;;16.73;;
83284;SDS011;73191;50.074;8.488;2023-11-18T11:37:52;48.72;;;15.93;;
83284;SDS011;73191;50.074;8.488;2023-11-18T11:40:23;44.60;;;16.35;;
83284;SDS011;73191;50.074;8.488;2023-11-18T11:42:51;42.42;;;16.85;;
83284;SDS011;73191;50.074;8.488;2023-11-18T11:45:23;41.30;;;16.45;;
83284;SDS011;73191;50.074;8.488;2023-11-18T11:47:55;40.35;;;16.20;;
83284;SDS011;73191;50.074;8.488;2023-11-18T11:53:32;40.28;;;15.68;;
83284;SDS011;73191;50.074;8.488;2023-11-18T11:56:06;42.30;;;16.13;;
83284;SDS011;73191;50.074;8.488;2023-11-18T11:58:40;40.47;;;16.05;;
83284;SDS011;73191;50.074;8.488;2023-11-18T12:01:21;37.70;;;15.70;;
83284;SDS011;73191;50.074;8.488;2023-11-18T12:03:52;41.00;;;15.57;;
83284;SDS011;73191;50.074;8.488;2023-11-18T12:06:24;34.22;;;15.68;;
83284;SDS011;73191;50.074;8.488;2023-11-18T12:08:54;34.95;;;13.32;;
83284;SDS011;73191;50.074;8.488;2023-11-18T12:11:24;32.03;;;14.48;;
83284;SDS011;73191;50.074;8.488;2023-11-18T12:14:01;40.20;;;16.10;;
83284;SDS011;73191;50.074;8.488;2023-11-18T12:16:59;33.58;;;15.60;;
83284;SDS011;73191;50.074;8.488;2023-11-18T12:19:34;34.50;;;14.20;;
83284;SDS011;73191;50.074;8.488;2023-11-18T12:22:13;37.15;;;15.70;;
83284;SDS011;73191;50.074;8.488;2023-11-18T12:24:45;38.38;;;15.95;;
83284;SDS011;73191;50.074;8.488;2023-11-18T12:27:41;30.10;;;13.85;;
83284;SDS011;73191;50.074;8.488;2023-11-18T12:33:09;20.80;;;11.27;;
83284;SDS011;73191;50.074;8.488;2023-11-18T12:35:40;19.02;;;10.93;;
83284;SDS011;73191;50.074;8.488;2023-11-18T12:38:25;22.77;;;11.43;;
83284;SDS011;73191;50.074;8.488;2023-11-18T12:41:01;20.50;;;10.90;;
83284;SDS011;73191;50.074;8.488;2023-11-18T12:43:42;19.02;;;11.80;;
83284;SDS011;73191;50.074;8.488;2023-11-18T12:49:21;22.35;;;12.10;;
83284;SDS011;73191;50.074;8.488;2023-11-18T12:51:51;23.92;;;13.88;;
83284;SDS011;73191;50.074;8.488;2023-11-18T12:54:19;23.60;;;13.32;;
83284;SDS011;73191;50.074;8.488;2023-11-18T12:56:50;23.02;;;13.55;;
83284;SDS011;73191;50.074;8.488;2023-11-18T12:59:20;18.60;;;12.38;;
83284;SDS011;73191;50.074;8.488;2023-11-18T13:01:50;18.75;;;11.25;;
83284;SDS011;73191;50.074;8.488;2023-11-18T13:04:22;18.33;;;10.85;;
83284;SDS011;73191;50.074;8.488;2023-11-18T13:06:50;18.40;;;11.90;;
83284;SDS011;73191;50.074;8.488;2023-11-18T13:09:19;19.80;;;11.90;;
83284;SDS011;73191;50.074;8.488;2023-11-18T13:11:52;15.70;;;10.43;;
83284;SDS011;73191;50.074;8.488;2023-11-18T13:14:23;18.60;;;9.82;;
83284;SDS011;73191;50.074;8.488;2023-11-18T13:16:52;17.45;;;10.25;;
83284;SDS011;73191;50.074;8.488;2023-11-18T13:19:25;15.65;;;8.90;;
83284;SDS011;73191;50.074;8.488;2023-11-18T13:21:57;16.27;;;9.02;;
83284;SDS011;73191;50.074;8.488;2023-11-18T13:24:26;16.52;;;8.85;;
83284;SDS011;73191;50.074;8.488;2023-11-18T13:26:54;12.32;;;7.68;;
83284;SDS011;73191;50.074;8.488;2023-11-18T13:29:23;13.93;;;8.55;;
83284;SDS011;73191;50.074;8.488;2023-11-18T13:31:51;13.88;;;8.98;;
83284;SDS011;73191;50.074;8.488;2023-11-18T13:34:19;14.23;;;8.18;;
83284;SDS011;73191;50.074;8.488;2023-11-18T13:36:49;17.85;;;12.13;;
83284;SDS011;73191;50.074;8.488;2023-11-18T13:39:17;18.52;;;10.25;;
83284;SDS011;73191;50.074;8.488;2023-11-18T13:41:45;13.50;;;8.35;;
83284;SDS011;73191;50.074;8.488;2023-11-18T13:44:31;13.23;;;8.32;;
83284;SDS011;73191;50.074;8.488;2023-11-18T13:47:00;12.20;;;8.00;;
83284;SDS011;73191;50.074;8.488;2023-11-18T13:49:32;15.65;;;8.48;;
83284;SDS011;73191;50.074;8.488;2023-11-18T13:52:02;11.05;;;7.30;;
83284;SDS011;73191;50.074;8.488;2023-11-18T13:54:33;13.40;;;8.10;;
83284;SDS011;73191;50.074;8.488;2023-11-18T13:57:02;19.30;;;9.95;;
83284;SDS011;73191;50.074;8.488;2023-11-18T13:59:32;24.73;;;14.13;;
83284;SDS011;73191;50.074;8.488;2023-11-18T14:02:00;20.02;;;9.93;;
83284;SDS011;73191;50.074;8.488;2023-11-18T14:04:30;15.07;;;9.20;;
83284;SDS011;73191;50.074;8.488;2023-11-18T14:06:59;11.52;;;8.02;;
83284;SDS011;73191;50.074;8.488;2023-11-18T14:09:32;16.20;;;9.35;;
83284;SDS011;73191;50.074;8.488;2023-11-18T14:12:02;13.65;;;7.78;;
83284;SDS011;73191;50.074;8.488;2023-11-18T14:14:32;14.30;;;8.68;;
83284;SDS011;73191;50.074;8.488;2023-11-18T14:17:00;16.02;;;9.82;;
83284;SDS011;73191;50.074;8.488;2023-11-18T14:19:28;12.63;;;9.15;;
83284;SDS011;73191;50.074;8.488;2023-11-18T14:21:56;12.20;;;9.15;;
83284;SDS011;73191;50.074;8.488;2023-11-18T14:24:24;11.15;;;7.90;;
83284;SDS011;73191;50.074;8.488;2023-11-18T14:26:55;13.50;;;8.65;;
83284;SDS011;73191;50.074;8.488;2023-11-18T14:29:23;12.52;;;8.48;;
83284;SDS011;73191;50.074;8.488;2023-11-18T14:31:54;14.18;;;8.30;;
83284;SDS011;73191;50.074;8.488;2023-11-18T14:34:22;11.45;;;7.60;;
83284;SDS011;73191;50.074;8.488;2023-11-18T14:36:51;10.75;;;6.63;;
83284;SDS011;73191;50.074;8.488;2023-11-18T14:39:18;10.50;;;6.20;;
83284;SDS011;73191;50.074;8.488;2023-11-18T14:41:50;10.73;;;6.85;;
83284;SDS011;73191;50.074;8.488;2023-11-18T14:44:21;9.23;;;5.60;;
83284;SDS011;73191;50.074;8.488;2023-11-18T14:46:49;12.63;;;6.97;;
83284;SDS011;73191;50.074;8.488;2023-11-18T14:49:18;12.02;;;6.57;;
83284;SDS011;73191;50.074;8.488;2023-11-18T14:51:45;16.80;;;8.55;;
83284;SDS011;73191;50.074;8.488;2023-11-18T14:54:13;13.60;;;8.98;;
83284;SDS011;73191;50.074;8.488;2023-11-18T14:56:42;13.00;;;6.28;;